sensor_id;sensor_type;location;lat;lon;timestamp;P1;durP1;ratioP1;P2;durP2;ratioP2
2129;SDS011;1071;52.544;13.374;2023-04-15T00:02:22;21.20;;;19.00;;
2129;SDS011;1071;52.544;13.374;2023-04-15T00:04:49;20.98;;;18.67;;
2129;SDS011;1071;52.544;13.374;2023-04-15T00:07:18;23.73;;;20.63;;
2129;SDS011;1071;52.544;13.374;2023-04-15T00:09:45;20.58;;;18.35;;
2129;SDS011;1071;52.544;13.374;2023-04-15T00:12:12;22.60;;;20.20;;
2129;SDS011;1071;52.544;13.374;2023-04-15T00:14:41;21.73;;;18.55;;
2129;SDS011;1071;52.544;13.374;2023-04-15T00:17:14;21.50;;;19.20;;
2129;SDS011;1071;52.544;13.374;2023-04-15T00:19:46;22.95;;;20.15;;
2129;SDS011;1071;52.544;13.374;2023-04-15T00:22:13;24.85;;;22.20;;
2129;SDS011;1071;52.544;13.374;2023-04-15T00:24:41;23.42;;;19.60;;
2129;SDS011;1071;52.544;13.374;2023-04-15T00:27:08;25.95;;;20.25;;
2129;SDS011;1071;52.544;13.374;2023-04-15T00:29:35;25.27;;;22.23;;
2129;SDS011;1071;52.544;13.374;2023-04-15T00:32:03;24.23;;;21.63;;
2129;SDS011;1071;52.544;13.374;2023-04-15T00:34:31;26.40;;;21.95;;
2129;SDS011;1071;52.544;13.374;2023-04-15T00:36:58;26.98;;;20.73;;
2129;SDS011;1071;52.544;13.374;2023-04-15T00:39:29;22.52;;;20.13;;
2129;SDS011;1071;52.544;13.374;2023-04-15T00:42:03;25.10;;;21.05;;
2129;SDS011;1071;52.544;13.374;2023-04-15T00:44:30;24.30;;;21.70;;
2129;SDS011;1071;52.544;13.374;2023-04-15T00:46:59;24.83;;;21.30;;
2129;SDS011;1071;52.544;13.374;2023-04-15T00:49:29;26.23;;;23.00;;
2129;SDS011;1071;52.544;13.374;2023-04-15T00:52:00;27.48;;;22.40;;
2129;SDS011;1071;52.544;13.374;2023-04-15T00:54:27;26.05;;;23.25;;
2129;SDS011;1071;52.544;13.374;2023-04-15T00:56:56;27.70;;;22.52;;
2129;SDS011;1071;52.544;13.374;2023-04-15T00:59:23;24.60;;;21.52;;
2129;SDS011;1071;52.544;13.374;2023-04-15T01:01:51;22.50;;;19.90;;
2129;SDS011;1071;52.544;13.374;2023-04-15T01:04:25;28.23;;;24.80;;
2129;SDS011;1071;52.544;13.374;2023-04-15T01:06:54;27.52;;;23.08;;
2129;SDS011;1071;52.544;13.374;2023-04-15T01:09:20;31.83;;;25.65;;
2129;SDS011;1071;52.544;13.374;2023-04-15T01:11:48;28.77;;;24.50;;
2129;SDS011;1071;52.544;13.374;2023-04-15T01:14:15;26.70;;;22.25;;
2129;SDS011;1071;52.544;13.374;2023-04-15T01:16:44;26.88;;;23.27;;
2129;SDS011;1071;52.544;13.374;2023-04-15T01:19:12;28.67;;;25.55;;
2129;SDS011;1071;52.544;13.374;2023-04-15T01:21:42;31.90;;;26.17;;
2129;SDS011;1071;52.544;13.374;2023-04-15T01:24:14;31.05;;;23.92;;
2129;SDS011;1071;52.544;13.374;2023-04-15T01:26:46;31.60;;;24.35;;
2129;SDS011;1071;52.544;13.374;2023-04-15T01:29:15;30.20;;;24.60;;
2129;SDS011;1071;52.544;13.374;2023-04-15T01:31:48;29.00;;;23.60;;
2129;SDS011;1071;52.544;13.374;2023-04-15T01:34:16;29.92;;;24.35;;
2129;SDS011;1071;52.544;13.374;2023-04-15T01:36:43;34.03;;;26.05;;
2129;SDS011;1071;52.544;13.374;2023-04-15T01:39:11;27.50;;;22.90;;
2129;SDS011;1071;52.544;13.374;2023-04-15T01:41:38;39.25;;;27.33;;
2129;SDS011;1071;52.544;13.374;2023-04-15T01:44:07;32.92;;;25.65;;
2129;SDS011;1071;52.544;13.374;2023-04-15T01:46:35;29.02;;;23.73;;
2129;SDS011;1071;52.544;13.374;2023-04-15T01:49:02;32.80;;;24.83;;
2129;SDS011;1071;52.544;13.374;2023-04-15T01:51:32;38.33;;;28.70;;
2129;SDS011;1071;52.544;13.374;2023-04-15T01:54:03;33.00;;;26.73;;
2129;SDS011;1071;52.544;13.374;2023-04-15T01:59:51;33.83;;;26.75;;
2129;SDS011;1071;52.544;13.374;2023-04-15T02:02:18;32.70;;;25.67;;
2129;SDS011;1071;52.544;13.374;2023-04-15T02:04:45;30.95;;;25.30;;
2129;SDS011;1071;52.544;13.374;2023-04-15T02:07:12;31.95;;;26.52;;
2129;SDS011;1071;52.544;13.374;2023-04-15T02:09:42;33.97;;;25.98;;
2129;SDS011;1071;52.544;13.374;2023-04-15T02:12:10;28.92;;;24.15;;
2129;SDS011;1071;52.544;13.374;2023-04-15T02:14:40;33.30;;;25.98;;
2129;SDS011;1071;52.544;13.374;2023-04-15T02:17:11;34.08;;;25.85;;
2129;SDS011;1071;52.544;13.374;2023-04-15T02:19:38;30.00;;;24.33;;
2129;SDS011;1071;52.544;13.374;2023-04-15T02:22:06;29.60;;;25.15;;
2129;SDS011;1071;52.544;13.374;2023-04-15T02:24:33;35.63;;;26.83;;
2129;SDS011;1071;52.544;13.374;2023-04-15T02:27:00;32.65;;;26.70;;
2129;SDS011;1071;52.544;13.374;2023-04-15T02:29:27;32.50;;;27.17;;
2129;SDS011;1071;52.544;13.374;2023-04-15T02:31:54;31.88;;;25.40;;
2129;SDS011;1071;52.544;13.374;2023-04-15T02:34:25;32.03;;;24.80;;
2129;SDS011;1071;52.544;13.374;2023-04-15T02:36:52;33.75;;;24.55;;
2129;SDS011;1071;52.544;13.374;2023-04-15T02:39:21;29.50;;;23.75;;
2129;SDS011;1071;52.544;13.374;2023-04-15T02:41:48;36.47;;;27.73;;
2129;SDS011;1071;52.544;13.374;2023-04-15T02:44:16;32.85;;;25.73;;
2129;SDS011;1071;52.544;13.374;2023-04-15T02:46:44;29.25;;;22.83;;
2129;SDS011;1071;52.544;13.374;2023-04-15T02:49:16;31.30;;;24.98;;
2129;SDS011;1071;52.544;13.374;2023-04-15T02:51:45;30.90;;;24.70;;
2129;SDS011;1071;52.544;13.374;2023-04-15T02:54:13;31.98;;;24.10;;
2129;SDS011;1071;52.544;13.374;2023-04-15T02:56:40;31.30;;;25.90;;
2129;SDS011;1071;52.544;13.374;2023-04-15T02:59:08;32.17;;;24.55;;
2129;SDS011;1071;52.544;13.374;2023-04-15T03:01:36;28.75;;;23.42;;
2129;SDS011;1071;52.544;13.374;2023-04-15T03:04:05;29.80;;;23.02;;
2129;SDS011;1071;52.544;13.374;2023-04-15T03:06:32;27.67;;;22.65;;
2129;SDS011;1071;52.544;13.374;2023-04-15T03:09:02;32.03;;;25.20;;
2129;SDS011;1071;52.544;13.374;2023-04-15T03:11:32;29.52;;;24.27;;
2129;SDS011;1071;52.544;13.374;2023-04-15T03:14:02;30.25;;;24.88;;
2129;SDS011;1071;52.544;13.374;2023-04-15T03:16:39;32.05;;;23.60;;
2129;SDS011;1071;52.544;13.374;2023-04-15T03:19:06;28.90;;;24.00;;
2129;SDS011;1071;52.544;13.374;2023-04-15T03:21:33;31.48;;;23.88;;
2129;SDS011;1071;52.544;13.374;2023-04-15T03:24:03;25.95;;;21.40;;
2129;SDS011;1071;52.544;13.374;2023-04-15T03:26:33;29.98;;;22.95;;
2129;SDS011;1071;52.544;13.374;2023-04-15T03:29:00;31.23;;;23.30;;
2129;SDS011;1071;52.544;13.374;2023-04-15T03:31:27;32.80;;;24.30;;
2129;SDS011;1071;52.544;13.374;2023-04-15T03:33:54;29.23;;;24.20;;
2129;SDS011;1071;52.544;13.374;2023-04-15T03:36:21;30.45;;;24.58;;
2129;SDS011;1071;52.544;13.374;2023-04-15T03:38:48;29.55;;;23.52;;
2129;SDS011;1071;52.544;13.374;2023-04-15T03:41:17;27.05;;;21.45;;
2129;SDS011;1071;52.544;13.374;2023-04-15T03:43:45;31.90;;;25.00;;
2129;SDS011;1071;52.544;13.374;2023-04-15T03:46:33;28.88;;;23.38;;
2129;SDS011;1071;52.544;13.374;2023-04-15T03:49:12;31.02;;;24.70;;
2129;SDS011;1071;52.544;13.374;2023-04-15T03:51:43;30.58;;;21.13;;
2129;SDS011;1071;52.544;13.374;2023-04-15T03:54:14;34.10;;;25.52;;
2129;SDS011;1071;52.544;13.374;2023-04-15T03:56:44;30.35;;;22.05;;
2129;SDS011;1071;52.544;13.374;2023-04-15T03:59:11;25.38;;;20.75;;
2129;SDS011;1071;52.544;13.374;2023-04-15T04:01:38;26.27;;;22.48;;
2129;SDS011;1071;52.544;13.374;2023-04-15T04:04:05;27.08;;;22.08;;
2129;SDS011;1071;52.544;13.374;2023-04-15T04:06:32;28.25;;;23.10;;
2129;SDS011;1071;52.544;13.374;2023-04-15T04:09:12;29.00;;;24.13;;
2129;SDS011;1071;52.544;13.374;2023-04-15T04:11:46;26.48;;;22.70;;
2129;SDS011;1071;52.544;13.374;2023-04-15T04:14:13;28.23;;;22.38;;
2129;SDS011;1071;52.544;13.374;2023-04-15T04:16:40;26.92;;;22.77;;
2129;SDS011;1071;52.544;13.374;2023-04-15T04:19:07;27.67;;;22.88;;
2129;SDS011;1071;52.544;13.374;2023-04-15T04:21:34;28.77;;;22.92;;
2129;SDS011;1071;52.544;13.374;2023-04-15T04:24:03;27.77;;;21.75;;
2129;SDS011;1071;52.544;13.374;2023-04-15T04:26:30;26.15;;;21.48;;
2129;SDS011;1071;52.544;13.374;2023-04-15T04:28:59;25.90;;;20.98;;
2129;SDS011;1071;52.544;13.374;2023-04-15T04:31:26;21.60;;;19.30;;
2129;SDS011;1071;52.544;13.374;2023-04-15T04:33:53;23.33;;;20.00;;
2129;SDS011;1071;52.544;13.374;2023-04-15T04:36:20;26.52;;;21.33;;
2129;SDS011;1071;52.544;13.374;2023-04-15T04:38:47;22.13;;;19.80;;
2129;SDS011;1071;52.544;13.374;2023-04-15T04:41:15;22.98;;;19.45;;
2129;SDS011;1071;52.544;13.374;2023-04-15T04:43:43;24.98;;;19.83;;
2129;SDS011;1071;52.544;13.374;2023-04-15T04:46:11;25.58;;;20.45;;
2129;SDS011;1071;52.544;13.374;2023-04-15T04:48:38;23.63;;;21.15;;
2129;SDS011;1071;52.544;13.374;2023-04-15T04:51:08;23.33;;;20.17;;
2129;SDS011;1071;52.544;13.374;2023-04-15T04:53:39;26.15;;;21.83;;
2129;SDS011;1071;52.544;13.374;2023-04-15T04:56:07;23.67;;;20.15;;
2129;SDS011;1071;52.544;13.374;2023-04-15T04:58:34;29.92;;;22.80;;
2129;SDS011;1071;52.544;13.374;2023-04-15T05:01:02;23.65;;;20.35;;
2129;SDS011;1071;52.544;13.374;2023-04-15T05:03:33;22.65;;;20.23;;
2129;SDS011;1071;52.544;13.374;2023-04-15T05:06:00;24.10;;;19.90;;
2129;SDS011;1071;52.544;13.374;2023-04-15T05:08:30;23.38;;;19.95;;
2129;SDS011;1071;52.544;13.374;2023-04-15T05:10:58;23.42;;;20.38;;
2129;SDS011;1071;52.544;13.374;2023-04-15T05:13:28;24.33;;;21.08;;
2129;SDS011;1071;52.544;13.374;2023-04-15T05:15:55;27.27;;;19.83;;
2129;SDS011;1071;52.544;13.374;2023-04-15T05:18:22;28.13;;;22.08;;
2129;SDS011;1071;52.544;13.374;2023-04-15T05:20:51;21.52;;;18.92;;
2129;SDS011;1071;52.544;13.374;2023-04-15T05:23:18;22.00;;;19.65;;
2129;SDS011;1071;52.544;13.374;2023-04-15T05:25:47;22.60;;;19.67;;
2129;SDS011;1071;52.544;13.374;2023-04-15T05:28:14;20.92;;;18.70;;
2129;SDS011;1071;52.544;13.374;2023-04-15T05:30:41;25.00;;;21.67;;
2129;SDS011;1071;52.544;13.374;2023-04-15T05:33:08;23.08;;;20.38;;
2129;SDS011;1071;52.544;13.374;2023-04-15T05:35:35;17.95;;;15.93;;
2129;SDS011;1071;52.544;13.374;2023-04-15T05:38:04;22.88;;;17.27;;
2129;SDS011;1071;52.544;13.374;2023-04-15T05:40:31;20.40;;;16.75;;
2129;SDS011;1071;52.544;13.374;2023-04-15T05:42:59;20.50;;;18.50;;
2129;SDS011;1071;52.544;13.374;2023-04-15T05:45:26;23.08;;;19.02;;
2129;SDS011;1071;52.544;13.374;2023-04-15T05:47:53;20.90;;;18.70;;
2129;SDS011;1071;52.544;13.374;2023-04-15T05:50:21;21.65;;;18.02;;
2129;SDS011;1071;52.544;13.374;2023-04-15T05:52:48;19.77;;;17.55;;
2129;SDS011;1071;52.544;13.374;2023-04-15T05:55:17;18.35;;;16.50;;
2129;SDS011;1071;52.544;13.374;2023-04-15T05:57:44;20.80;;;18.65;;
2129;SDS011;1071;52.544;13.374;2023-04-15T06:00:14;20.98;;;17.15;;
2129;SDS011;1071;52.544;13.374;2023-04-15T06:02:42;20.73;;;18.20;;
2129;SDS011;1071;52.544;13.374;2023-04-15T06:05:08;17.80;;;15.98;;
2129;SDS011;1071;52.544;13.374;2023-04-15T06:07:36;20.25;;;18.15;;
2129;SDS011;1071;52.544;13.374;2023-04-15T06:10:04;18.52;;;16.00;;
2129;SDS011;1071;52.544;13.374;2023-04-15T06:12:33;20.88;;;15.45;;
2129;SDS011;1071;52.544;13.374;2023-04-15T06:15:02;17.05;;;15.25;;
2129;SDS011;1071;52.544;13.374;2023-04-15T06:17:30;19.20;;;16.75;;
2129;SDS011;1071;52.544;13.374;2023-04-15T06:19:57;17.67;;;15.85;;
2129;SDS011;1071;52.544;13.374;2023-04-15T06:22:24;15.60;;;14.13;;
2129;SDS011;1071;52.544;13.374;2023-04-15T06:24:51;16.80;;;15.10;;
2129;SDS011;1071;52.544;13.374;2023-04-15T06:27:21;17.95;;;16.23;;
2129;SDS011;1071;52.544;13.374;2023-04-15T06:29:51;17.83;;;15.90;;
2129;SDS011;1071;52.544;13.374;2023-04-15T06:32:18;16.50;;;14.90;;
2129;SDS011;1071;52.544;13.374;2023-04-15T06:34:45;19.17;;;16.25;;
2129;SDS011;1071;52.544;13.374;2023-04-15T06:37:12;17.85;;;15.60;;
2129;SDS011;1071;52.544;13.374;2023-04-15T06:39:40;23.00;;;15.77;;
2129;SDS011;1071;52.544;13.374;2023-04-15T06:42:09;20.27;;;14.77;;
2129;SDS011;1071;52.544;13.374;2023-04-15T06:44:37;21.45;;;15.70;;
2129;SDS011;1071;52.544;13.374;2023-04-15T06:47:05;16.52;;;14.90;;
2129;SDS011;1071;52.544;13.374;2023-04-15T06:49:33;16.60;;;13.65;;
2129;SDS011;1071;52.544;13.374;2023-04-15T06:52:01;17.55;;;14.40;;
2129;SDS011;1071;52.544;13.374;2023-04-15T06:54:29;14.07;;;12.73;;
2129;SDS011;1071;52.544;13.374;2023-04-15T06:56:58;15.25;;;13.63;;
2129;SDS011;1071;52.544;13.374;2023-04-15T06:59:25;15.05;;;13.55;;
2129;SDS011;1071;52.544;13.374;2023-04-15T07:01:52;12.73;;;11.55;;
2129;SDS011;1071;52.544;13.374;2023-04-15T07:04:21;14.00;;;12.68;;
2129;SDS011;1071;52.544;13.374;2023-04-15T07:06:48;12.32;;;11.02;;
2129;SDS011;1071;52.544;13.374;2023-04-15T07:09:15;13.63;;;12.27;;
2129;SDS011;1071;52.544;13.374;2023-04-15T07:11:42;14.18;;;12.68;;
2129;SDS011;1071;52.544;13.374;2023-04-15T07:14:09;13.25;;;11.85;;
2129;SDS011;1071;52.544;13.374;2023-04-15T07:16:36;15.65;;;13.50;;
2129;SDS011;1071;52.544;13.374;2023-04-15T07:19:03;14.27;;;12.85;;
2129;SDS011;1071;52.544;13.374;2023-04-15T07:21:33;12.32;;;11.15;;
2129;SDS011;1071;52.544;13.374;2023-04-15T07:24:03;13.57;;;12.05;;
2129;SDS011;1071;52.544;13.374;2023-04-15T07:26:32;13.00;;;11.80;;
2129;SDS011;1071;52.544;13.374;2023-04-15T07:29:01;13.98;;;12.02;;
2129;SDS011;1071;52.544;13.374;2023-04-15T07:31:29;13.73;;;12.52;;
2129;SDS011;1071;52.544;13.374;2023-04-15T07:34:01;13.52;;;12.23;;
2129;SDS011;1071;52.544;13.374;2023-04-15T07:36:29;14.60;;;13.20;;
2129;SDS011;1071;52.544;13.374;2023-04-15T07:38:57;13.98;;;12.65;;
2129;SDS011;1071;52.544;13.374;2023-04-15T07:41:26;13.38;;;12.13;;
2129;SDS011;1071;52.544;13.374;2023-04-15T07:43:53;12.35;;;11.20;;
2129;SDS011;1071;52.544;13.374;2023-04-15T07:46:20;16.25;;;13.20;;
2129;SDS011;1071;52.544;13.374;2023-04-15T07:48:48;14.77;;;13.15;;
2129;SDS011;1071;52.544;13.374;2023-04-15T07:51:16;12.70;;;11.60;;
2129;SDS011;1071;52.544;13.374;2023-04-15T07:53:45;15.80;;;14.18;;
2129;SDS011;1071;52.544;13.374;2023-04-15T07:56:17;14.10;;;12.75;;
2129;SDS011;1071;52.544;13.374;2023-04-15T07:58:45;13.35;;;12.05;;
2129;SDS011;1071;52.544;13.374;2023-04-15T08:01:13;14.77;;;13.43;;
2129;SDS011;1071;52.544;13.374;2023-04-15T08:03:40;15.93;;;14.38;;
2129;SDS011;1071;52.544;13.374;2023-04-15T08:06:07;14.48;;;12.95;;
2129;SDS011;1071;52.544;13.374;2023-04-15T08:08:34;13.95;;;12.27;;
2129;SDS011;1071;52.544;13.374;2023-04-15T08:11:01;14.45;;;13.10;;
2129;SDS011;1071;52.544;13.374;2023-04-15T08:13:30;15.43;;;13.23;;
2129;SDS011;1071;52.544;13.374;2023-04-15T08:16:17;15.35;;;13.93;;
2129;SDS011;1071;52.544;13.374;2023-04-15T08:18:45;14.88;;;13.40;;
2129;SDS011;1071;52.544;13.374;2023-04-15T08:21:15;16.70;;;15.13;;
2129;SDS011;1071;52.544;13.374;2023-04-15T08:23:44;15.80;;;14.10;;
2129;SDS011;1071;52.544;13.374;2023-04-15T08:26:11;14.55;;;13.25;;
2129;SDS011;1071;52.544;13.374;2023-04-15T08:28:40;14.38;;;13.07;;
2129;SDS011;1071;52.544;13.374;2023-04-15T08:31:13;13.80;;;12.52;;
2129;SDS011;1071;52.544;13.374;2023-04-15T08:33:41;16.80;;;15.10;;
2129;SDS011;1071;52.544;13.374;2023-04-15T08:36:11;13.55;;;12.30;;
2129;SDS011;1071;52.544;13.374;2023-04-15T08:38:40;15.85;;;14.35;;
2129;SDS011;1071;52.544;13.374;2023-04-15T08:41:10;16.77;;;15.02;;
2129;SDS011;1071;52.544;13.374;2023-04-15T08:43:44;16.73;;;14.85;;
2129;SDS011;1071;52.544;13.374;2023-04-15T08:46:17;14.45;;;13.15;;
2129;SDS011;1071;52.544;13.374;2023-04-15T08:48:44;14.80;;;13.25;;
2129;SDS011;1071;52.544;13.374;2023-04-15T08:51:13;15.50;;;13.80;;
2129;SDS011;1071;52.544;13.374;2023-04-15T08:53:43;17.13;;;14.40;;
2129;SDS011;1071;52.544;13.374;2023-04-15T08:56:14;18.00;;;16.20;;
2129;SDS011;1071;52.544;13.374;2023-04-15T08:58:48;17.75;;;15.93;;
2129;SDS011;1071;52.544;13.374;2023-04-15T09:01:16;16.50;;;14.85;;
2129;SDS011;1071;52.544;13.374;2023-04-15T09:03:44;14.52;;;13.20;;
2129;SDS011;1071;52.544;13.374;2023-04-15T09:06:15;15.57;;;14.07;;
2129;SDS011;1071;52.544;13.374;2023-04-15T09:08:51;16.80;;;15.02;;
2129;SDS011;1071;52.544;13.374;2023-04-15T09:11:24;17.63;;;15.93;;
2129;SDS011;1071;52.544;13.374;2023-04-15T09:13:58;16.77;;;15.13;;
2129;SDS011;1071;52.544;13.374;2023-04-15T09:16:25;16.20;;;14.68;;
2129;SDS011;1071;52.544;13.374;2023-04-15T09:18:58;16.00;;;14.57;;
2129;SDS011;1071;52.544;13.374;2023-04-15T09:21:26;15.25;;;13.65;;
2129;SDS011;1071;52.544;13.374;2023-04-15T09:24:03;15.23;;;13.63;;
2129;SDS011;1071;52.544;13.374;2023-04-15T09:26:34;15.35;;;13.93;;
2129;SDS011;1071;52.544;13.374;2023-04-15T09:29:06;17.23;;;15.43;;
2129;SDS011;1071;52.544;13.374;2023-04-15T09:31:37;15.05;;;13.65;;
2129;SDS011;1071;52.544;13.374;2023-04-15T09:34:07;15.07;;;13.68;;
2129;SDS011;1071;52.544;13.374;2023-04-15T09:36:50;16.55;;;15.15;;
2129;SDS011;1071;52.544;13.374;2023-04-15T09:39:22;16.23;;;14.63;;
2129;SDS011;1071;52.544;13.374;2023-04-15T09:42:03;14.60;;;13.27;;
2129;SDS011;1071;52.544;13.374;2023-04-15T09:44:33;14.95;;;13.60;;
2129;SDS011;1071;52.544;13.374;2023-04-15T09:47:02;16.08;;;14.43;;
2129;SDS011;1071;52.544;13.374;2023-04-15T09:49:30;16.60;;;15.00;;
2129;SDS011;1071;52.544;13.374;2023-04-15T09:54:58;18.42;;;14.73;;
2129;SDS011;1071;52.544;13.374;2023-04-15T09:57:31;15.17;;;13.80;;
2129;SDS011;1071;52.544;13.374;2023-04-15T10:00:02;14.60;;;13.20;;
2129;SDS011;1071;52.544;13.374;2023-04-15T10:02:29;15.00;;;13.63;;
2129;SDS011;1071;52.544;13.374;2023-04-15T10:04:57;14.50;;;13.13;;
2129;SDS011;1071;52.544;13.374;2023-04-15T10:07:25;17.05;;;15.45;;
2129;SDS011;1071;52.544;13.374;2023-04-15T10:09:53;14.10;;;12.73;;
2129;SDS011;1071;52.544;13.374;2023-04-15T10:12:23;14.77;;;13.48;;
2129;SDS011;1071;52.544;13.374;2023-04-15T10:15:03;15.73;;;14.23;;
2129;SDS011;1071;52.544;13.374;2023-04-15T10:17:32;14.40;;;13.10;;
2129;SDS011;1071;52.544;13.374;2023-04-15T10:20:01;15.40;;;13.95;;
2129;SDS011;1071;52.544;13.374;2023-04-15T10:22:31;16.13;;;14.63;;
2129;SDS011;1071;52.544;13.374;2023-04-15T10:25:00;14.50;;;13.10;;
2129;SDS011;1071;52.544;13.374;2023-04-15T10:27:33;15.23;;;13.73;;
2129;SDS011;1071;52.544;13.374;2023-04-15T10:32:56;15.93;;;14.20;;
2129;SDS011;1071;52.544;13.374;2023-04-15T10:35:28;16.48;;;14.98;;
2129;SDS011;1071;52.544;13.374;2023-04-15T10:37:58;16.50;;;14.80;;
2129;SDS011;1071;52.544;13.374;2023-04-15T10:40:31;14.52;;;13.20;;
2129;SDS011;1071;52.544;13.374;2023-04-15T10:42:59;14.85;;;13.35;;
2129;SDS011;1071;52.544;13.374;2023-04-15T10:45:35;14.18;;;12.90;;
2129;SDS011;1071;52.544;13.374;2023-04-15T10:48:20;15.00;;;13.50;;
2129;SDS011;1071;52.544;13.374;2023-04-15T10:51:03;16.55;;;14.85;;
2129;SDS011;1071;52.544;13.374;2023-04-15T10:53:33;15.65;;;14.25;;
2129;SDS011;1071;52.544;13.374;2023-04-15T10:56:22;18.13;;;16.25;;
2129;SDS011;1071;52.544;13.374;2023-04-15T10:58:49;17.13;;;15.40;;
2129;SDS011;1071;52.544;13.374;2023-04-15T11:01:20;16.70;;;15.10;;
2129;SDS011;1071;52.544;13.374;2023-04-15T11:04:01;17.25;;;15.75;;
2129;SDS011;1071;52.544;13.374;2023-04-15T11:06:42;14.35;;;13.05;;
2129;SDS011;1071;52.544;13.374;2023-04-15T11:09:29;15.48;;;14.15;;
2129;SDS011;1071;52.544;13.374;2023-04-15T11:12:09;16.00;;;14.38;;
2129;SDS011;1071;52.544;13.374;2023-04-15T11:14:56;14.98;;;13.65;;
2129;SDS011;1071;52.544;13.374;2023-04-15T11:17:27;16.58;;;15.10;;
2129;SDS011;1071;52.544;13.374;2023-04-15T11:19:54;16.40;;;14.88;;
2129;SDS011;1071;52.544;13.374;2023-04-15T11:22:25;25.92;;;15.30;;
2129;SDS011;1071;52.544;13.374;2023-04-15T11:24:52;17.38;;;15.85;;
2129;SDS011;1071;52.544;13.374;2023-04-15T11:27:31;17.23;;;15.75;;
2129;SDS011;1071;52.544;13.374;2023-04-15T11:29:58;14.35;;;12.85;;
2129;SDS011;1071;52.544;13.374;2023-04-15T11:35:21;15.63;;;14.32;;
2129;SDS011;1071;52.544;13.374;2023-04-15T11:37:48;16.10;;;14.60;;
2129;SDS011;1071;52.544;13.374;2023-04-15T11:40:16;15.20;;;13.85;;
2129;SDS011;1071;52.544;13.374;2023-04-15T11:42:54;15.98;;;14.48;;
2129;SDS011;1071;52.544;13.374;2023-04-15T11:48:47;13.02;;;11.82;;
2129;SDS011;1071;52.544;13.374;2023-04-15T11:51:21;15.00;;;13.50;;
2129;SDS011;1071;52.544;13.374;2023-04-15T11:53:48;16.00;;;14.45;;
2129;SDS011;1071;52.544;13.374;2023-04-15T11:56:21;15.70;;;14.20;;
2129;SDS011;1071;52.544;13.374;2023-04-15T11:58:54;16.08;;;14.57;;
2129;SDS011;1071;52.544;13.374;2023-04-15T12:04:25;14.70;;;13.25;;
2129;SDS011;1071;52.544;13.374;2023-04-15T12:06:55;16.60;;;15.00;;
2129;SDS011;1071;52.544;13.374;2023-04-15T12:09:30;13.15;;;11.90;;
2129;SDS011;1071;52.544;13.374;2023-04-15T12:12:03;13.40;;;12.10;;
2129;SDS011;1071;52.544;13.374;2023-04-15T12:14:31;15.40;;;14.02;;
2129;SDS011;1071;52.544;13.374;2023-04-15T12:17:09;15.30;;;13.73;;
2129;SDS011;1071;52.544;13.374;2023-04-15T12:19:39;14.65;;;13.25;;
2129;SDS011;1071;52.544;13.374;2023-04-15T12:22:10;15.13;;;13.68;;
2129;SDS011;1071;52.544;13.374;2023-04-15T12:24:42;14.13;;;12.93;;
2129;SDS011;1071;52.544;13.374;2023-04-15T12:27:12;14.15;;;12.75;;
2129;SDS011;1071;52.544;13.374;2023-04-15T12:29:40;14.15;;;12.85;;
2129;SDS011;1071;52.544;13.374;2023-04-15T12:32:09;15.55;;;14.02;;
2129;SDS011;1071;52.544;13.374;2023-04-15T12:37:43;16.45;;;14.80;;
2129;SDS011;1071;52.544;13.374;2023-04-15T12:40:10;15.25;;;13.82;;
2129;SDS011;1071;52.544;13.374;2023-04-15T12:42:39;13.38;;;12.10;;
2129;SDS011;1071;52.544;13.374;2023-04-15T12:45:06;13.10;;;11.90;;
2129;SDS011;1071;52.544;13.374;2023-04-15T12:47:36;15.15;;;13.65;;
2129;SDS011;1071;52.544;13.374;2023-04-15T12:50:06;13.82;;;12.52;;
2129;SDS011;1071;52.544;13.374;2023-04-15T12:52:40;14.10;;;12.55;;
2129;SDS011;1071;52.544;13.374;2023-04-15T12:55:07;13.90;;;12.50;;
2129;SDS011;1071;52.544;13.374;2023-04-15T12:57:37;12.38;;;11.27;;
2129;SDS011;1071;52.544;13.374;2023-04-15T13:00:14;16.45;;;14.75;;
2129;SDS011;1071;52.544;13.374;2023-04-15T13:02:42;12.87;;;11.60;;
2129;SDS011;1071;52.544;13.374;2023-04-15T13:05:10;12.20;;;11.10;;
2129;SDS011;1071;52.544;13.374;2023-04-15T13:07:41;13.40;;;12.30;;
2129;SDS011;1071;52.544;13.374;2023-04-15T13:10:09;14.00;;;12.60;;
2129;SDS011;1071;52.544;13.374;2023-04-15T13:12:36;14.13;;;12.65;;
2129;SDS011;1071;52.544;13.374;2023-04-15T13:18:02;13.80;;;12.50;;
2129;SDS011;1071;52.544;13.374;2023-04-15T13:20:32;13.40;;;12.20;;
2129;SDS011;1071;52.544;13.374;2023-04-15T13:23:04;15.20;;;13.27;;
2129;SDS011;1071;52.544;13.374;2023-04-15T13:25:35;13.75;;;12.55;;
2129;SDS011;1071;52.544;13.374;2023-04-15T13:28:02;11.60;;;10.50;;
2129;SDS011;1071;52.544;13.374;2023-04-15T13:30:29;11.57;;;10.57;;
2129;SDS011;1071;52.544;13.374;2023-04-15T13:32:55;13.10;;;11.70;;
2129;SDS011;1071;52.544;13.374;2023-04-15T13:35:22;14.53;;;12.97;;
2129;SDS011;1071;52.544;13.374;2023-04-15T13:37:49;12.20;;;11.05;;
2129;SDS011;1071;52.544;13.374;2023-04-15T13:40:18;12.70;;;11.50;;
2129;SDS011;1071;52.544;13.374;2023-04-15T13:42:50;11.90;;;10.90;;
2129;SDS011;1071;52.544;13.374;2023-04-15T13:45:22;10.97;;;9.97;;
2129;SDS011;1071;52.544;13.374;2023-04-15T13:47:52;10.30;;;9.40;;
2129;SDS011;1071;52.544;13.374;2023-04-15T13:50:21;13.43;;;12.13;;
2129;SDS011;1071;52.544;13.374;2023-04-15T13:52:47;11.30;;;10.20;;
2129;SDS011;1071;52.544;13.374;2023-04-15T13:55:15;12.15;;;11.00;;
2129;SDS011;1071;52.544;13.374;2023-04-15T13:57:50;12.15;;;11.05;;
2129;SDS011;1071;52.544;13.374;2023-04-15T14:00:17;13.43;;;12.32;;
2129;SDS011;1071;52.544;13.374;2023-04-15T14:02:44;13.15;;;11.95;;
2129;SDS011;1071;52.544;13.374;2023-04-15T14:05:15;13.00;;;11.80;;
2129;SDS011;1071;52.544;13.374;2023-04-15T14:07:42;11.75;;;10.65;;
2129;SDS011;1071;52.544;13.374;2023-04-15T14:10:23;10.87;;;9.93;;
2129;SDS011;1071;52.544;13.374;2023-04-15T14:13:09;13.05;;;11.80;;
2129;SDS011;1071;52.544;13.374;2023-04-15T14:16:07;14.35;;;13.05;;
2129;SDS011;1071;52.544;13.374;2023-04-15T14:18:32;13.93;;;12.82;;
2129;SDS011;1071;52.544;13.374;2023-04-15T14:21:13;13.80;;;12.48;;
2129;SDS011;1071;52.544;13.374;2023-04-15T14:23:40;13.27;;;12.17;;
2129;SDS011;1071;52.544;13.374;2023-04-15T14:26:10;12.67;;;11.57;;
2129;SDS011;1071;52.544;13.374;2023-04-15T14:28:50;11.43;;;10.52;;
2129;SDS011;1071;52.544;13.374;2023-04-15T14:31:24;15.20;;;13.85;;
2129;SDS011;1071;52.544;13.374;2023-04-15T14:34:06;13.05;;;11.95;;
2129;SDS011;1071;52.544;13.374;2023-04-15T14:36:33;13.20;;;12.00;;
2129;SDS011;1071;52.544;13.374;2023-04-15T14:39:00;13.75;;;12.55;;
2129;SDS011;1071;52.544;13.374;2023-04-15T14:42:23;12.30;;;11.20;;
2129;SDS011;1071;52.544;13.374;2023-04-15T14:44:52;12.53;;;11.33;;
2129;SDS011;1071;52.544;13.374;2023-04-15T14:47:23;13.02;;;11.65;;
2129;SDS011;1071;52.544;13.374;2023-04-15T14:49:50;11.32;;;10.32;;
2129;SDS011;1071;52.544;13.374;2023-04-15T14:52:18;12.57;;;11.27;;
2129;SDS011;1071;52.544;13.374;2023-04-15T14:55:03;13.32;;;12.00;;
2129;SDS011;1071;52.544;13.374;2023-04-15T14:57:30;11.10;;;10.00;;
2129;SDS011;1071;52.544;13.374;2023-04-15T15:00:02;11.37;;;10.43;;
2129;SDS011;1071;52.544;13.374;2023-04-15T15:02:31;11.38;;;10.32;;
2129;SDS011;1071;52.544;13.374;2023-04-15T15:05:11;12.18;;;11.18;;
2129;SDS011;1071;52.544;13.374;2023-04-15T15:07:41;11.60;;;10.55;;
2129;SDS011;1071;52.544;13.374;2023-04-15T15:10:11;11.52;;;10.43;;
2129;SDS011;1071;52.544;13.374;2023-04-15T15:12:38;12.15;;;11.02;;
2129;SDS011;1071;52.544;13.374;2023-04-15T15:15:10;10.80;;;9.90;;
2129;SDS011;1071;52.544;13.374;2023-04-15T15:17:41;9.60;;;8.80;;